This is the latest recevied weather packets stored in our database for station/object CE4JVU-10. If no packets are shown the sender has not sent any weather packets the latest 10 day(s).
| Time | Temp. | Humidity | Pressure | Rain* | Wind** | Luminosity | Snow |
|---|---|---|---|---|---|---|---|
| 1787763100 | 16.11° C | 68% | 978.1 hPa | - | - | - | - |
| 1787762200 | 15.56° C | 69% | 978.1 hPa | - | - | - | - |
| 1787761300 | 15° C | 71% | 978.3 hPa | - | - | - | - |
| 1787760399 | 16.11° C | 68% | 978.4 hPa | - | - | - | - |
| 1787759498 | 16.11° C | 68% | 978.7 hPa | - | - | - | - |
| 1787758598 | 16.67° C | 66% | 978.4 hPa | - | - | - | - |
| 1787757698 | 16.11° C | 67% | 978.3 hPa | - | - | - | - |
| 1787756798 | 15.56° C | 67% | 978.5 hPa | - | - | - | - |
| 1787755898 | 15° C | 70% | 978.3 hPa | - | - | - | - |
| 1787754998 | 15° C | 70% | 978.3 hPa | - | - | - | - |
| 1787754098 | 15° C | 70% | 978.7 hPa | - | - | - | - |
| 1787753201 | 15.56° C | 70% | 978.5 hPa | - | - | - | - |
| 1787752301 | 15° C | 72% | 978.9 hPa | - | - | - | - |
| 1787751400 | 16.67° C | 69% | 978.5 hPa | - | - | - | - |
| 1787750500 | 17.78° C | 70% | 978.1 hPa | - | - | - | - |
| 1787749600 | 17.78° C | 71% | 979.1 hPa | - | - | - | - |
| 1787748700 | 17.78° C | 69% | 980.3 hPa | - | - | - | - |
| 1787747800 | 17.78° C | 70% | 979.9 hPa | - | - | - | - |
| 1787746899 | 17.22° C | 73% | 979.7 hPa | - | - | - | - |
| 1787745999 | 17.78° C | 69% | 979.5 hPa | - | - | - | - |
| 1787745099 | 17.78° C | 69% | 979.2 hPa | - | - | - | - |
| 1787744199 | 17.78° C | 69% | 979 hPa | - | - | - | - |
| 1787743299 | 17.78° C | 69% | 979.5 hPa | - | - | - | - |
| 1787742399 | 17.78° C | 70% | 978.9 hPa | - | - | - | - |
| 1787741499 | 17.78° C | 70% | 978.6 hPa | - | - | - | - |
* Rain since midnight (hover to see other rain measurements)
** Current wind speed in m/s (hover to see current wind gust speed)